Time;durP1;ratioP1;P1;durP2;ratioP2;P2;SDS_P1;SDS_P2;PMS_P1;PMS_P2;Temp;Humidity;BMP_temperature;BMP_pressure;BME280_temperature;BME280_humidity;BME280_pressure;Samples;Min_cycle;Max_cycle;Signal;HPM_P1;HPM_P2
2021/03/14 00:00:30;;;;;;;1.13;0.40;;;;;;;4.53;100.00;98609.16;4957038;28;20193;-71
2021/03/14 00:02:56;;;;;;;1.03;0.43;;;;;;;4.42;100.00;98607.63;4972913;28;20197;-70
2021/03/14 00:05:22;;;;;;;1.13;0.50;;;;;;;4.46;100.00;98619.41;4973045;28;20260;-71
2021/03/14 00:07:50;;;;;;;0.77;0.60;;;;;;;4.42;100.00;98583.47;4945311;28;20300;-70
2021/03/14 00:10:16;;;;;;;0.40;0.40;;;;;;;4.46;100.00;98627.47;4997049;28;20328;-72
2021/03/14 00:12:43;;;;;;;0.80;0.50;;;;;;;4.42;100.00;98629.13;4974892;28;20177;-72
2021/03/14 00:15:09;;;;;;;0.50;0.50;;;;;;;4.45;100.00;98641.19;4976902;28;20192;-71
2021/03/14 00:17:35;;;;;;;2.97;1.67;;;;;;;4.45;100.00;98654.63;4945596;28;20215;-71
2021/03/14 00:20:02;;;;;;;3.10;1.70;;;;;;;4.40;100.00;98647.44;4977729;28;20587;-71
2021/03/14 00:22:27;;;;;;;0.40;0.40;;;;;;;4.47;100.00;98647.91;4960093;28;20240;-71
2021/03/14 00:24:53;;;;;;;0.50;0.50;;;;;;;4.46;100.00;98675.84;4945327;28;20240;-71
2021/03/14 00:27:21;;;;;;;1.17;0.77;;;;;;;4.44;100.00;98632.34;4945083;28;20225;-72
2021/03/14 00:29:46;;;;;;;0.50;0.50;;;;;;;4.40;100.00;98685.03;4961594;28;20217;-71
2021/03/14 00:32:15;;;;;;;1.20;0.70;;;;;;;4.47;100.00;98668.59;4993329;28;20221;-71
2021/03/14 00:34:42;;;;;;;0.67;0.60;;;;;;;4.45;100.00;98679.63;4964999;28;20750;-71
2021/03/14 00:37:15;;;;;;;1.00;0.60;;;;;;;4.49;100.00;98683.38;4996330;28;20212;-72
2021/03/14 00:39:45;;;;;;;1.60;0.40;;;;;;;4.46;100.00;98689.28;4986108;28;20185;-71
2021/03/14 00:42:11;;;;;;;0.60;0.60;;;;;;;4.48;100.00;98714.00;4975087;28;20299;-71
2021/03/14 00:44:38;;;;;;;1.60;0.50;;;;;;;4.46;100.00;98710.78;4981285;28;20208;-71
2021/03/14 00:47:04;;;;;;;0.80;0.50;;;;;;;4.50;100.00;98711.81;4964012;28;20237;-71
2021/03/14 00:49:30;;;;;;;1.10;0.60;;;;;;;4.47;100.00;98707.03;4980148;28;20250;-71
2021/03/14 00:51:55;;;;;;;0.53;0.40;;;;;;;4.54;100.00;98717.44;4962009;28;20221;-71
2021/03/14 00:54:24;;;;;;;1.97;0.93;;;;;;;4.55;100.00;98719.84;4963647;28;20191;-72
2021/03/14 00:56:49;;;;;;;1.90;0.50;;;;;;;4.55;100.00;98735.97;4961944;28;20271;-71
2021/03/14 00:59:15;;;;;;;1.27;0.60;;;;;;;4.52;100.00;98733.84;4960412;28;20677;-70
2021/03/14 01:01:44;;;;;;;0.93;0.50;;;;;;;4.47;100.00;98739.28;4975119;28;20225;-71
2021/03/14 01:04:09;;;;;;;1.63;0.60;;;;;;;4.53;100.00;98732.78;4960538;28;20184;-72
2021/03/14 01:06:35;;;;;;;1.50;0.40;;;;;;;4.57;100.00;98771.44;4959589;28;20225;-72
2021/03/14 01:09:04;;;;;;;0.83;0.80;;;;;;;4.57;100.00;98753.41;4978915;28;20208;-72
2021/03/14 01:11:32;;;;;;;2.53;0.70;;;;;;;4.57;100.00;98766.06;4976270;28;20245;-72
2021/03/14 01:14:06;;;;;;;1.47;0.40;;;;;;;4.51;100.00;98774.47;4978371;28;20201;-71
2021/03/14 01:16:44;;;;;;;1.13;0.50;;;;;;;4.58;100.00;98762.31;4977988;28;20648;-71
2021/03/14 01:19:10;;;;;;;0.63;0.60;;;;;;;4.59;100.00;98774.66;4976585;28;20216;-72
2021/03/14 01:21:35;;;;;;;0.63;0.50;;;;;;;4.55;100.00;98786.25;4978362;28;20254;-71
2021/03/14 01:24:01;;;;;;;2.73;0.70;;;;;;;4.52;100.00;98766.09;4991838;28;20189;-72
2021/03/14 01:26:27;;;;;;;0.63;0.50;;;;;;;4.51;100.00;98780.63;4942977;28;20236;-72
2021/03/14 01:28:52;;;;;;;1.43;0.50;;;;;;;4.53;100.00;98781.16;4943854;28;20216;-71
2021/03/14 01:31:17;;;;;;;1.70;0.60;;;;;;;4.54;100.00;98787.31;4975235;28;20234;-72
2021/03/14 01:33:43;;;;;;;1.00;0.63;;;;;;;4.57;100.00;98801.00;4942833;28;20217;-72
2021/03/14 01:36:08;;;;;;;1.50;0.80;;;;;;;4.57;100.00;98801.78;4959309;28;20229;-71
2021/03/14 01:38:34;;;;;;;2.73;1.20;;;;;;;4.57;100.00;98802.91;4971012;28;20240;-71
2021/03/14 01:41:02;;;;;;;2.87;0.80;;;;;;;4.59;100.00;98817.66;4996588;28;20232;-71
2021/03/14 01:43:35;;;;;;;2.00;0.70;;;;;;;4.59;100.00;98812.28;4994517;28;20184;-71
2021/03/14 01:46:04;;;;;;;0.87;0.57;;;;;;;4.60;100.00;98808.53;5025166;28;20232;-71
2021/03/14 01:48:30;;;;;;;2.40;0.60;;;;;;;4.57;100.00;98819.81;4978449;28;20197;-72
2021/03/14 01:50:56;;;;;;;2.90;0.60;;;;;;;4.52;100.00;98825.22;4994128;28;20240;-70
2021/03/14 01:53:26;;;;;;;2.17;0.57;;;;;;;4.53;100.00;98823.34;4994174;28;20196;-71
2021/03/14 01:55:52;;;;;;;2.50;0.80;;;;;;;4.61;100.00;98826.22;4977900;28;20299;-71
2021/03/14 01:58:18;;;;;;;2.00;0.60;;;;;;;4.59;100.00;98856.06;5011214;28;20193;-71
2021/03/14 02:00:46;;;;;;;2.40;0.70;;;;;;;4.54;100.00;98852.63;5016651;28;20229;-72
2021/03/14 02:03:16;;;;;;;3.80;0.90;;;;;;;4.54;100.00;98857.19;4978395;28;20187;-72
2021/03/14 02:05:42;;;;;;;2.63;0.83;;;;;;;4.54;100.00;98871.41;4977327;28;20730;-72
2021/03/14 02:08:07;;;;;;;0.83;0.50;;;;;;;4.58;100.00;98875.19;4987877;28;20197;-74
2021/03/14 02:10:33;;;;;;;1.90;0.60;;;;;;;4.53;100.00;98883.28;4982942;28;20396;-71
2021/03/14 02:13:06;;;;;;;1.00;0.80;;;;;;;4.62;100.00;98868.16;4977592;28;20564;-72
2021/03/14 02:15:32;;;;;;;2.53;0.70;;;;;;;4.57;100.00;98889.69;4994144;28;20312;-72
2021/03/14 02:17:58;;;;;;;1.63;0.97;;;;;;;4.53;100.00;98891.34;5010497;28;20244;-72
2021/03/14 02:20:26;;;;;;;1.37;0.60;;;;;;;4.52;100.00;98899.66;4993390;28;20190;-72
2021/03/14 02:22:57;;;;;;;3.40;1.30;;;;;;;4.56;100.00;98896.16;4977193;28;20332;-71
2021/03/14 02:25:29;;;;;;;2.87;0.80;;;;;;;4.57;100.00;98895.06;4993544;28;20217;-71
2021/03/14 02:27:56;;;;;;;2.67;0.80;;;;;;;4.55;100.00;98907.97;4977840;28;20292;-71
2021/03/14 02:30:22;;;;;;;3.27;0.90;;;;;;;4.61;100.00;98925.69;5026076;28;20213;-72
2021/03/14 02:32:50;;;;;;;1.03;0.70;;;;;;;4.61;100.00;98912.25;4993779;28;20185;-71
2021/03/14 02:35:15;;;;;;;3.40;0.80;;;;;;;4.59;100.00;98919.78;4993501;28;20197;-72
2021/03/14 02:37:46;;;;;;;3.67;0.97;;;;;;;4.65;100.00;98932.13;5004474;28;20240;-71
2021/03/14 02:40:12;;;;;;;2.07;0.83;;;;;;;4.64;100.00;98938.59;4976948;28;20177;-73
2021/03/14 02:42:38;;;;;;;1.97;1.00;;;;;;;4.57;100.00;98932.69;4976341;28;20216;-73
2021/03/14 02:45:04;;;;;;;1.17;0.80;;;;;;;4.57;100.00;98948.81;4961145;28;20266;-71
2021/03/14 02:47:29;;;;;;;2.60;0.93;;;;;;;4.56;100.00;98955.28;4977354;28;20312;-71
2021/03/14 02:49:55;;;;;;;1.57;0.70;;;;;;;4.54;100.00;98948.56;5010135;28;20209;-72
2021/03/14 02:52:23;;;;;;;1.53;0.60;;;;;;;4.59;100.00;98957.41;4976176;28;20224;-71
2021/03/14 02:54:50;;;;;;;1.60;0.80;;;;;;;4.52;100.00;98959.59;4993661;28;20291;-72
2021/03/14 02:57:19;;;;;;;3.50;1.33;;;;;;;4.43;100.00;98969.31;4992792;28;20235;-72
2021/03/14 02:59:44;;;;;;;1.70;0.50;;;;;;;4.45;100.00;98967.16;4991252;28;20178;-72
2021/03/14 03:02:10;;;;;;;0.97;0.67;;;;;;;4.47;100.00;98978.44;4924992;28;20240;-71
2021/03/14 03:04:40;;;;;;;2.17;0.50;;;;;;;4.46;100.00;98979.50;4926951;28;20194;-72
2021/03/14 03:07:08;;;;;;;2.20;0.60;;;;;;;4.34;100.00;98983.56;4957838;28;20767;-71
2021/03/14 03:09:38;;;;;;;2.10;0.60;;;;;;;4.40;100.00;98990.56;4968176;28;20228;-71
2021/03/14 03:12:03;;;;;;;1.93;0.77;;;;;;;4.33;100.00;98990.84;4975945;28;20252;-73
2021/03/14 03:14:30;;;;;;;3.20;0.87;;;;;;;4.28;100.00;98998.91;4941420;28;20193;-73
2021/03/14 03:16:55;;;;;;;2.13;0.70;;;;;;;4.31;100.00;99009.09;4989083;28;20236;-73
2021/03/14 03:19:23;;;;;;;2.00;0.70;;;;;;;4.30;100.00;99002.16;4974041;28;20193;-71
2021/03/14 03:21:49;;;;;;;1.50;0.63;;;;;;;4.28;100.00;99017.69;4956233;28;20236;-72
2021/03/14 03:24:14;;;;;;;1.50;0.53;;;;;;;4.32;100.00;99016.09;4973751;28;20276;-72
2021/03/14 03:26:47;;;;;;;1.33;0.60;;;;;;;4.24;100.00;99022.00;4973001;28;20229;-73
2021/03/14 03:29:17;;;;;;;3.47;0.80;;;;;;;4.31;100.00;99027.91;4974166;28;20739;-72
2021/03/14 03:31:43;;;;;;;0.83;0.80;;;;;;;4.24;100.00;99024.69;4956352;28;20778;-72
2021/03/14 03:34:09;;;;;;;1.10;0.70;;;;;;;4.27;100.00;99018.78;4973008;28;20182;-71
2021/03/14 03:36:37;;;;;;;1.60;0.70;;;;;;;4.20;100.00;99038.16;4957342;28;20638;-71
2021/03/14 03:39:07;;;;;;;0.90;0.63;;;;;;;4.19;100.00;99044.59;4986504;28;20193;-72
2021/03/14 03:41:39;;;;;;;2.10;0.60;;;;;;;4.30;100.00;99042.44;5006149;28;20302;-72
2021/03/14 03:44:05;;;;;;;0.70;0.70;;;;;;;4.25;100.00;99050.50;5008153;28;20199;-71
2021/03/14 03:46:31;;;;;;;2.43;0.93;;;;;;;4.32;100.00;99059.09;5008378;28;20220;-71
2021/03/14 03:48:59;;;;;;;1.10;0.90;;;;;;;4.32;100.00;99056.41;4976734;28;20221;-71
2021/03/14 03:51:31;;;;;;;3.43;0.90;;;;;;;4.25;100.00;99074.69;4992110;28;20286;-70
2021/03/14 03:54:01;;;;;;;1.67;1.00;;;;;;;4.31;100.00;99072.78;4992057;28;20553;-71
2021/03/14 03:56:27;;;;;;;1.50;1.00;;;;;;;4.21;100.00;99080.84;4992395;28;20232;-71
2021/03/14 03:58:54;;;;;;;1.90;0.97;;;;;;;4.22;100.00;99093.22;4976807;28;20200;-71
2021/03/14 04:01:20;;;;;;;2.20;1.10;;;;;;;4.21;100.00;99094.28;4992447;28;20577;-72
2021/03/14 04:03:51;;;;;;;1.40;0.73;;;;;;;4.18;100.00;99094.03;4991755;28;20188;-73
2021/03/14 04:06:17;;;;;;;1.87;0.90;;;;;;;4.23;100.00;99095.63;4976332;28;20282;-71
2021/03/14 04:08:43;;;;;;;2.10;0.93;;;;;;;4.17;100.00;99103.16;4957911;28;20216;-71
2021/03/14 04:11:13;;;;;;;0.70;0.70;;;;;;;4.17;100.00;99103.16;4987278;28;20606;-72
2021/03/14 04:13:39;;;;;;;0.83;0.60;;;;;;;4.16;100.00;99112.28;4976001;28;20181;-72
2021/03/14 04:16:05;;;;;;;1.43;0.73;;;;;;;4.22;100.00;99120.88;4992154;28;20232;-71
2021/03/14 04:18:31;;;;;;;1.57;0.87;;;;;;;4.20;100.00;99124.91;4992367;28;20691;-73
2021/03/14 04:20:59;;;;;;;2.63;1.00;;;;;;;4.20;100.00;99124.13;4992271;28;20225;-73
2021/03/14 04:23:24;;;;;;;1.17;0.90;;;;;;;4.12;100.00;99149.63;4991914;28;20185;-70
2021/03/14 04:25:51;;;;;;;1.47;0.90;;;;;;;4.20;100.00;99131.09;4991928;28;20240;-70
2021/03/14 04:28:16;;;;;;;1.00;0.90;;;;;;;4.18;100.00;99139.69;5009005;28;20750;-72
2021/03/14 04:30:44;;;;;;;2.30;0.83;;;;;;;4.10;100.00;99150.94;4975463;28;20241;-71
2021/03/14 04:33:14;;;;;;;2.07;1.10;;;;;;;4.09;100.00;99146.66;5008094;28;20618;-71
2021/03/14 04:35:40;;;;;;;2.57;1.10;;;;;;;4.12;100.00;99140.75;4991542;28;20243;-72
2021/03/14 04:38:05;;;;;;;2.40;1.20;;;;;;;4.22;100.00;99166.53;4990256;28;20276;-71
2021/03/14 04:40:31;;;;;;;3.50;1.10;;;;;;;4.27;100.00;99168.44;4983453;28;20227;-71
2021/03/14 04:42:57;;;;;;;4.33;1.10;;;;;;;4.23;100.00;99168.16;4975209;28;20203;-72
2021/03/14 04:45:22;;;;;;;3.20;1.33;;;;;;;4.28;100.00;99175.41;4991526;28;20267;-71
2021/03/14 04:47:47;;;;;;;3.03;1.20;;;;;;;4.23;100.00;99178.91;4992882;28;20205;-71
2021/03/14 04:50:16;;;;;;;2.83;1.47;;;;;;;4.20;100.00;99179.44;4975604;28;20699;-73
2021/03/14 04:52:42;;;;;;;2.87;1.47;;;;;;;4.26;100.00;99185.63;4975639;28;20647;-72
2021/03/14 04:55:13;;;;;;;4.30;1.40;;;;;;;4.26;100.00;99182.94;4975899;28;20221;-71
2021/03/14 04:57:41;;;;;;;4.87;1.40;;;;;;;4.34;100.00;99190.44;5000817;28;20295;-70
2021/03/14 05:00:11;;;;;;;1.90;1.40;;;;;;;4.28;100.00;99197.69;4992273;28;20186;-71
2021/03/14 05:02:37;;;;;;;1.83;1.07;;;;;;;4.35;100.00;99213.56;4956402;28;20264;-72
2021/03/14 05:05:05;;;;;;;1.50;1.10;;;;;;;4.30;100.00;99200.97;4940600;28;20297;-71
2021/03/14 05:07:31;;;;;;;3.83;1.47;;;;;;;4.32;100.00;99209.56;4946302;28;20893;-71
2021/03/14 05:09:57;;;;;;;2.20;1.53;;;;;;;4.28;100.00;99207.66;4995170;28;20209;-72
2021/03/14 05:12:25;;;;;;;2.27;1.37;;;;;;;4.38;100.00;99221.91;4980122;28;20224;-72
2021/03/14 05:14:53;;;;;;;3.00;1.50;;;;;;;4.31;100.00;99242.06;4986997;28;20212;-71
2021/03/14 05:17:19;;;;;;;2.33;1.20;;;;;;;4.45;100.00;99246.66;4957110;28;20230;-71
2021/03/14 05:19:47;;;;;;;2.57;1.70;;;;;;;4.34;100.00;99244.19;4956686;28;20186;-71
2021/03/14 05:22:12;;;;;;;2.57;1.50;;;;;;;4.45;100.00;99262.78;4955240;28;20238;-73
2021/03/14 05:24:38;;;;;;;3.07;1.37;;;;;;;4.49;100.00;99269.22;4956860;28;20190;-72
2021/03/14 05:27:03;;;;;;;1.60;1.40;;;;;;;4.48;100.00;99267.59;4923582;28;20238;-71
2021/03/14 05:29:31;;;;;;;3.70;1.87;;;;;;;4.41;100.00;99271.63;4940596;28;20190;-72
2021/03/14 05:31:57;;;;;;;3.73;1.80;;;;;;;4.37;100.00;99287.47;4955164;28;20292;-71
2021/03/14 05:34:26;;;;;;;2.37;2.00;;;;;;;4.43;100.00;99281.06;4956375;28;20234;-71
2021/03/14 05:36:52;;;;;;;4.33;1.70;;;;;;;4.41;100.00;99293.13;4971740;28;20221;-72
2021/03/14 05:39:17;;;;;;;3.60;1.33;;;;;;;4.40;100.00;99295.00;4983746;28;20280;-73
2021/03/14 05:41:43;;;;;;;2.50;1.60;;;;;;;4.41;100.00;99301.19;4958188;28;20225;-71
2021/03/14 05:44:12;;;;;;;3.97;1.53;;;;;;;4.49;100.00;99312.22;4992615;28;20600;-71
2021/03/14 05:46:42;;;;;;;1.73;1.30;;;;;;;4.47;100.00;99319.75;4992172;28;20225;-71
2021/03/14 05:49:07;;;;;;;3.27;1.47;;;;;;;4.42;100.00;99317.03;4944069;28;20217;-71
2021/03/14 05:51:35;;;;;;;2.57;1.77;;;;;;;4.40;100.00;99335.31;4958758;28;20272;-72
2021/03/14 05:54:01;;;;;;;3.97;1.80;;;;;;;4.38;100.00;99342.84;4958361;28;20541;-72
2021/03/14 05:56:31;;;;;;;1.97;1.40;;;;;;;4.58;100.00;99348.28;4992046;28;20232;-73
2021/03/14 05:58:59;;;;;;;4.50;1.33;;;;;;;4.56;100.00;99349.59;4959780;28;20218;-72
2021/03/14 06:01:28;;;;;;;4.03;1.30;;;;;;;4.55;100.00;99356.84;4958112;28;20229;-72
2021/03/14 06:03:57;;;;;;;2.70;1.47;;;;;;;4.50;100.00;99362.22;4958896;28;20220;-72
2021/03/14 06:06:23;;;;;;;3.30;1.30;;;;;;;4.48;100.00;99372.41;4958761;28;20217;-71
2021/03/14 06:08:50;;;;;;;2.10;1.10;;;;;;;4.62;100.00;99370.84;4934998;28;20217;-72
2021/03/14 06:11:18;;;;;;;3.20;1.43;;;;;;;4.50;100.00;99372.97;4939544;28;20234;-71
2021/03/14 06:13:44;;;;;;;2.47;1.00;;;;;;;4.40;100.00;99383.69;4970631;28;20660;-72
2021/03/14 06:16:10;;;;;;;5.93;1.30;;;;;;;4.45;100.00;99385.56;4971110;28;20308;-72
2021/03/14 06:18:35;;;;;;;3.93;1.23;;;;;;;4.43;100.00;99387.72;4955556;28;20771;-71
2021/03/14 06:21:02;;;;;;;1.63;1.50;;;;;;;4.43;100.00;99391.25;4939104;28;20318;-71
2021/03/14 06:23:28;;;;;;;1.67;0.97;;;;;;;4.51;100.00;99398.78;4954760;28;20668;-71
2021/03/14 06:25:54;;;;;;;3.83;1.30;;;;;;;4.60;100.00;99405.25;4954773;28;20225;-72
2021/03/14 06:28:34;;;;;;;2.03;1.27;;;;;;;4.64;100.00;99417.09;4939479;28;20642;-73
2021/03/14 06:31:19;;;;;;;5.67;1.30;;;;;;;4.68;100.00;99418.97;4970992;28;20586;-72
2021/03/14 06:33:45;;;;;;;2.83;0.80;;;;;;;4.67;100.00;99427.31;4970627;28;20282;-72
2021/03/14 06:36:19;;;;;;;3.20;1.00;;;;;;;4.59;100.00;99425.94;4938753;28;20238;-72
2021/03/14 06:38:45;;;;;;;4.20;1.03;;;;;;;4.74;100.00;99438.63;4952558;28;20588;-74
2021/03/14 06:41:11;;;;;;;4.47;1.53;;;;;;;4.82;100.00;99440.81;4974011;28;20225;-72
2021/03/14 06:43:56;;;;;;;2.57;1.00;;;;;;;4.93;100.00;99443.28;4973692;28;20204;-72
2021/03/14 06:46:22;;;;;;;4.03;1.10;;;;;;;4.96;100.00;99448.09;4973696;28;20225;-72
2021/03/14 06:49:06;;;;;;;5.43;1.60;;;;;;;5.00;100.00;99454.59;4974312;28;20271;-72
2021/03/14 06:51:36;;;;;;;2.10;1.20;;;;;;;4.96;100.00;99464.25;4939203;28;20343;-72
2021/03/14 06:54:21;;;;;;;2.93;1.10;;;;;;;4.87;100.00;99475.78;4957905;28;20184;-70
2021/03/14 06:56:57;;;;;;;1.87;1.17;;;;;;;4.86;100.00;99471.50;4973325;28;20284;-71
2021/03/14 06:59:22;;;;;;;6.07;1.20;;;;;;;4.83;100.00;99474.69;4974647;28;20221;-71
2021/03/14 07:02:04;;;;;;;5.47;1.93;;;;;;;4.92;100.00;99479.28;4956848;28;20703;-70
2021/03/14 07:04:43;;;;;;;3.13;1.20;;;;;;;5.15;100.00;99490.41;4959456;28;20197;-71
2021/03/14 07:07:22;;;;;;;3.40;1.50;;;;;;;5.25;100.00;99511.94;4973632;28;20663;-70
2021/03/14 07:10:11;;;;;;;3.53;1.30;;;;;;;5.24;100.00;99507.66;4980902;28;20182;-71
2021/03/14 07:12:44;;;;;;;3.37;1.13;;;;;;;5.25;100.00;99517.31;4941630;28;20234;-71
2021/03/14 07:15:23;;;;;;;1.83;1.10;;;;;;;5.11;100.00;99521.59;4941758;28;20236;-72
2021/03/14 07:17:50;;;;;;;2.67;1.20;;;;;;;5.32;100.00;99531.34;4944430;28;20213;-72
2021/03/14 07:20:19;;;;;;;2.90;1.30;;;;;;;5.15;100.00;99528.06;4943254;28;20660;-72
2021/03/14 07:23:01;;;;;;;4.13;1.27;;;;;;;5.24;100.00;99541.78;4976703;28;20195;-70
2021/03/14 07:25:27;;;;;;;2.17;1.20;;;;;;;5.33;100.00;99553.66;4976542;28;20243;-70
2021/03/14 07:27:52;;;;;;;2.40;1.10;;;;;;;5.35;100.00;99560.41;4993283;28;20690;-72
2021/03/14 07:30:19;;;;;;;3.47;1.30;;;;;;;5.41;100.00;99564.75;4960316;28;20213;-71
2021/03/14 07:32:45;;;;;;;2.80;1.00;;;;;;;5.29;100.00;99563.34;4992802;28;20188;-71
2021/03/14 07:35:11;;;;;;;1.77;0.93;;;;;;;5.31;100.00;99564.72;4993042;28;20221;-70
2021/03/14 07:37:41;;;;;;;2.50;0.70;;;;;;;5.23;100.00;99575.19;4979957;28;20208;-71
2021/03/14 07:40:08;;;;;;;1.13;0.80;;;;;;;5.02;100.00;99585.06;4980896;28;20233;-70
2021/03/14 07:42:33;;;;;;;1.10;0.70;;;;;;;5.20;100.00;99594.53;5011885;28;20176;-70
2021/03/14 07:45:00;;;;;;;1.80;0.70;;;;;;;5.14;100.00;99596.41;4979980;28;20188;-70
2021/03/14 07:47:30;;;;;;;1.73;0.70;;;;;;;5.18;100.00;99602.91;4976503;28;20287;-70
2021/03/14 07:49:56;;;;;;;3.27;1.10;;;;;;;5.32;100.00;99604.00;4961886;28;20681;-71
2021/03/14 07:52:24;;;;;;;3.10;1.27;;;;;;;5.47;100.00;99617.50;5010756;28;20220;-71
2021/03/14 07:55:13;;;;;;;1.57;0.90;;;;;;;5.34;100.00;99612.63;5012785;28;20188;-72
2021/03/14 07:57:42;;;;;;;2.33;0.70;;;;;;;5.20;100.00;99619.59;4993904;28;20224;-70
2021/03/14 08:00:23;;;;;;;1.57;0.87;;;;;;;5.32;100.00;99630.94;4996816;28;20253;-71
2021/03/14 08:02:56;;;;;;;1.53;1.00;;;;;;;5.26;100.00;99631.19;5027501;28;20619;-72
2021/03/14 08:05:40;;;;;;;2.27;1.00;;;;;;;5.25;100.00;99635.72;5011666;28;20326;-71
2021/03/14 08:08:06;;;;;;;1.87;1.30;;;;;;;5.40;100.00;99638.47;4993728;28;20731;-70
2021/03/14 08:10:40;;;;;;;2.70;1.27;;;;;;;5.61;100.00;99650.97;4991876;28;20237;-70
2021/03/14 08:13:07;;;;;;;3.10;1.10;;;;;;;5.70;100.00;99657.47;4991511;28;20231;-70
2021/03/14 08:15:33;;;;;;;2.60;1.10;;;;;;;5.91;100.00;99652.66;4960199;28;20236;-71
2021/03/14 08:18:00;;;;;;;3.57;1.30;;;;;;;5.87;100.00;99662.34;4958969;28;20212;-71
2021/03/14 08:20:42;;;;;;;2.83;1.40;;;;;;;5.89;100.00;99670.97;4982447;28;20256;-70
2021/03/14 08:23:11;;;;;;;2.73;1.10;;;;;;;5.82;100.00;99675.84;4956359;28;20559;-70
2021/03/14 08:25:48;;;;;;;2.43;1.20;;;;;;;5.81;100.00;99684.97;4964429;28;20236;-69
2021/03/14 08:28:23;;;;;;;3.07;1.20;;;;;;;5.96;100.00;99687.72;4961391;28;20204;-70
2021/03/14 08:31:09;;;;;;;3.47;1.07;;;;;;;6.23;100.00;99691.00;4992455;28;20655;-70
2021/03/14 08:33:43;;;;;;;2.73;1.00;;;;;;;6.27;100.00;99700.19;4963603;28;20243;-70
2021/03/14 08:36:16;;;;;;;2.40;1.20;;;;;;;6.29;100.00;99692.63;4953688;28;20213;-70
2021/03/14 08:38:50;;;;;;;3.60;1.20;;;;;;;6.25;100.00;99688.84;4974243;28;20284;-71
2021/03/14 08:41:19;;;;;;;2.37;0.93;;;;;;;6.35;100.00;99697.75;4992405;28;20788;-70
2021/03/14 08:43:51;;;;;;;3.37;1.00;;;;;;;6.45;100.00;99708.56;4995521;28;20185;-70
2021/03/14 08:46:45;;;;;;;4.70;1.10;;;;;;;6.60;100.00;99713.94;4965514;28;20247;-69
2021/03/14 08:49:15;;;;;;;2.30;1.20;;;;;;;6.36;100.00;99720.94;4973815;28;20190;-70
2021/03/14 08:51:41;;;;;;;3.83;1.10;;;;;;;6.30;100.00;99732.81;4942554;28;20234;-71
2021/03/14 08:54:07;;;;;;;2.97;1.77;;;;;;;6.38;100.00;99731.47;4943530;28;20566;-71
2021/03/14 08:56:39;;;;;;;5.63;1.60;;;;;;;6.36;100.00;99733.63;4972361;28;20455;-72
2021/03/14 08:59:09;;;;;;;3.57;1.33;;;;;;;6.48;100.00;99744.94;4969609;28;20208;-71
2021/03/14 09:01:39;;;;;;;2.70;1.00;;;;;;;6.79;100.00;99742.81;4960353;28;20737;-73
2021/03/14 09:04:20;;;;;;;4.13;1.50;;;;;;;7.10;100.00;99747.09;4961867;28;20189;-74
2021/03/14 09:07:13;;;;;;;4.80;1.17;;;;;;;7.19;100.00;99743.59;4962607;28;20268;-72
2021/03/14 09:09:43;;;;;;;3.73;1.20;;;;;;;7.47;100.00;99751.06;4958157;28;20181;-71
2021/03/14 09:12:42;;;;;;;4.20;1.10;;;;;;;7.33;100.00;99756.25;4988224;28;20703;-72
2021/03/14 09:15:22;;;;;;;3.73;1.47;;;;;;;7.31;100.00;99765.72;4977143;28;20189;-71
2021/03/14 09:18:10;;;;;;;26.50;17.97;;;;;;;7.44;100.00;99763.25;4996571;28;20217;-72
2021/03/14 09:20:36;;;;;;;2.90;1.70;;;;;;;7.20;100.00;99763.28;4957594;28;20256;-73
2021/03/14 09:23:07;;;;;;;5.33;1.70;;;;;;;7.36;100.00;99763.81;4984866;28;20177;-72
2021/03/14 09:25:53;;;;;;;4.60;1.70;;;;;;;7.28;100.00;99773.56;4999654;28;20715;-71
2021/03/14 09:28:21;;;;;;;8.30;1.90;;;;;;;7.35;100.00;99774.91;4966892;28;20355;-71
2021/03/14 09:30:51;;;;;;;3.00;1.60;;;;;;;7.11;100.00;99775.75;4962794;28;20248;-71
2021/03/14 09:33:16;;;;;;;5.40;1.87;;;;;;;7.13;100.00;99787.06;4978037;28;20521;-71
2021/03/14 09:35:57;;;;;;;6.20;2.70;;;;;;;7.21;100.00;99790.03;4966264;28;20209;-71
2021/03/14 09:38:32;;;;;;;4.37;2.30;;;;;;;7.42;100.00;99792.44;4963226;28;20250;-71
2021/03/14 09:41:04;;;;;;;4.33;2.40;;;;;;;7.42;100.00;99797.84;4960176;28;20224;-71
2021/03/14 09:43:40;;;;;;;5.63;2.83;;;;;;;7.79;100.00;99799.09;4943619;28;20223;-71
2021/03/14 09:46:32;;;;;;;5.87;2.50;;;;;;;7.34;100.00;99811.91;4964530;28;20230;-71
2021/03/14 09:49:14;;;;;;;6.93;2.70;;;;;;;7.70;100.00;99806.13;4960854;28;20283;-71
2021/03/14 09:52:00;;;;;;;5.93;2.70;;;;;;;7.70;100.00;99816.94;4945831;28;20244;-70
2021/03/14 09:54:34;;;;;;;7.67;2.83;;;;;;;7.75;100.00;99824.25;4944452;28;20301;-72
2021/03/14 09:57:02;;;;;;;7.17;2.97;;;;;;;7.55;100.00;99826.19;4958778;28;20300;-71
2021/03/14 09:59:41;;;;;;;7.90;3.33;;;;;;;7.55;100.00;99824.28;4946482;28;20181;-71
2021/03/14 10:02:20;;;;;;;6.70;3.30;;;;;;;8.01;100.00;99833.91;4959281;28;20710;-72
2021/03/14 10:05:04;;;;;;;6.77;2.87;;;;;;;7.98;100.00;99837.16;4963281;28;20221;-71
2021/03/14 10:07:30;;;;;;;8.07;2.87;;;;;;;8.21;100.00;99829.25;4938603;28;20209;-72
2021/03/14 10:10:06;;;;;;;6.13;3.03;;;;;;;7.93;100.00;99837.16;4948789;28;20181;-72
2021/03/14 10:12:41;;;;;;;9.13;3.40;;;;;;;8.39;100.00;99826.75;4990596;28;20223;-72
2021/03/14 10:15:07;;;;;;;7.37;2.63;;;;;;;8.09;100.00;99832.28;4973140;28;20185;-72
2021/03/14 10:17:36;;;;;;;6.40;2.60;;;;;;;8.25;100.00;99836.53;4986880;28;20301;-72
2021/03/14 10:20:02;;;;;;;6.53;2.57;;;;;;;8.33;100.00;99838.66;4986913;28;20199;-72
2021/03/14 10:22:29;;;;;;;9.53;2.70;;;;;;;8.05;100.00;99850.09;4963282;28;20270;-72
2021/03/14 10:25:25;;;;;;;9.27;2.67;;;;;;;7.65;100.00;99845.88;4968472;28;20207;-71
2021/03/14 10:28:05;;;;;;;8.80;2.70;;;;;;;8.08;100.00;99852.25;4970558;28;20249;-72
2021/03/14 10:30:36;;;;;;;6.77;2.50;;;;;;;8.32;100.00;99857.88;4967483;28;20232;-71
2021/03/14 10:33:31;;;;;;;8.03;2.63;;;;;;;8.43;100.00;99856.75;4965059;28;20192;-71
2021/03/14 10:36:05;;;;;;;8.30;2.57;;;;;;;8.59;100.00;99859.09;4974671;28;20219;-71
2021/03/14 10:38:40;;;;;;;7.90;2.50;;;;;;;8.88;100.00;99867.06;4982361;28;20216;-70
2021/03/14 10:41:14;;;;;;;7.90;2.73;;;;;;;8.42;100.00;99863.25;4961434;28;20619;-69
2021/03/14 10:43:48;;;;;;;6.93;2.67;;;;;;;8.55;100.00;99858.03;4974100;28;20188;-70
2021/03/14 10:46:15;;;;;;;6.43;2.87;;;;;;;8.52;100.00;99869.44;4981164;28;20303;-70
2021/03/14 10:48:42;;;;;;;9.67;2.97;;;;;;;8.53;100.00;99876.44;4965182;28;20193;-71
2021/03/14 10:51:10;;;;;;;5.87;2.70;;;;;;;8.28;100.00;99881.97;4988589;28;20231;-69
2021/03/14 10:53:45;;;;;;;7.57;2.67;;;;;;;8.03;100.00;99883.91;4966715;28;20740;-69
2021/03/14 10:56:38;;;;;;;7.03;2.47;;;;;;;7.86;100.00;99880.72;4981679;28;20221;-70
2021/03/14 10:59:07;;;;;;;10.27;2.80;;;;;;;8.07;100.00;99888.47;5004805;28;20217;-70
2021/03/14 11:02:21;;;;;;;11.03;2.57;;;;;;;8.13;100.00;99890.13;4965937;28;20250;-69
2021/03/14 11:04:54;;;;;;;7.77;2.60;;;;;;;8.15;100.00;99901.50;4959851;28;20216;-69
2021/03/14 11:07:22;;;;;;;9.03;2.83;;;;;;;8.14;100.00;99899.06;4988695;28;20240;-70
2021/03/14 11:09:47;;;;;;;9.60;2.60;;;;;;;8.04;100.00;99899.88;4979535;28;20188;-69
2021/03/14 11:12:32;;;;;;;7.87;2.80;;;;;;;8.20;100.00;99901.44;4970608;28;20217;-70
2021/03/14 11:14:58;;;;;;;6.67;2.37;;;;;;;8.26;100.00;99896.84;5000459;28;20204;-70
2021/03/14 11:17:37;;;;;;;9.40;2.60;;;;;;;8.58;100.00;99892.66;4971224;28;20225;-70
2021/03/14 11:20:14;;;;;;;5.57;2.17;;;;;;;8.71;100.00;99905.59;4976189;28;20181;-69
2021/03/14 11:22:54;;;;;;;5.60;2.47;;;;;;;8.32;100.00;99904.69;4971462;28;20184;-70
2021/03/14 11:25:20;;;;;;;4.37;1.90;;;;;;;8.26;100.00;99900.38;4984640;28;20184;-70
2021/03/14 11:27:51;;;;;;;7.03;1.87;;;;;;;7.94;100.00;99903.66;4981372;28;20216;-70
2021/03/14 11:30:20;;;;;;;6.03;1.97;;;;;;;7.93;100.00;99907.44;4972987;28;20204;-69
2021/03/14 11:32:46;;;;;;;5.47;2.00;;;;;;;8.06;100.00;99908.50;4998958;28;20203;-69
2021/03/14 11:35:21;;;;;;;8.57;2.60;;;;;;;7.81;100.00;99920.44;4975672;28;20181;-68
2021/03/14 11:38:02;;;;;;;8.83;2.10;;;;;;;8.18;100.00;99910.94;4993334;28;20233;-69
2021/03/14 11:40:39;;;;;;;6.53;2.27;;;;;;;8.69;98.61;99899.66;4979824;28;20229;-69
2021/03/14 11:43:25;;;;;;;3.67;1.90;;;;;;;8.70;92.61;99906.66;4959535;28;20193;-69
2021/03/14 11:46:14;;;;;;;6.60;1.83;;;;;;;8.90;90.52;99900.06;4930761;28;20218;-69
2021/03/14 11:48:44;;;;;;;3.87;1.57;;;;;;;8.67;88.44;99904.53;4986220;28;20225;-69